Terminal Aerodrome Forecast
Issued by NWS

Current Version | Previous Version | Text Only | Print | Product List | Glossary On
Versions: 1 2 3 4 5 6 7 8 9 10 11 12
336
FTUS42 KGSP 301142
TAFGMU
TAF
KGMU 301142Z 3012/0112 04009KT P6SM SCT120 BKN250
     FM301600 10004KT P6SM SCT035 BKN200
     FM302100 17008KT P6SM SCT040 BKN060
      TEMPO 3021/0101 4SM -TSRA OVC025CB
     FM010100 13005KT P6SM -SHRA OVC060 PROB30 0101/0105 4SM TSRA
      OVC030CB
     FM010500 14003KT 6SM -SHRA BR OVC030
     FM011000 17004KT P6SM -SHRA OVC003=

USA.gov is the U.S. government's official web portal to all federal, state and local government web resources and services.